createdAt,value
2022-12-18T00:00:08.687Z,99578.00
2022-12-18T00:00:18.738Z,99578.00
2022-12-18T00:00:28.689Z,99580.00
2022-12-18T00:00:38.676Z,99574.00
2022-12-18T00:00:48.719Z,99576.00
2022-12-18T00:00:58.677Z,99576.00
2022-12-18T00:01:08.699Z,99576.00
2022-12-18T00:01:18.742Z,99578.00
2022-12-18T00:01:28.755Z,99578.00
2022-12-18T00:01:38.710Z,99578.00
2022-12-18T00:01:48.720Z,99578.00
2022-12-18T00:01:58.727Z,99580.00
2022-12-18T00:02:08.715Z,99580.00
2022-12-18T00:02:18.672Z,99576.00
2022-12-18T00:02:28.769Z,99580.00
2022-12-18T00:02:38.777Z,99578.00
2022-12-18T00:02:48.799Z,99578.00
2022-12-18T00:02:58.805Z,99578.00
2022-12-18T00:03:08.777Z,99578.00
2022-12-18T00:03:18.797Z,99578.00
2022-12-18T00:03:28.833Z,99580.00
2022-12-18T00:03:39.134Z,99578.00
2022-12-18T00:03:48.828Z,99580.00
2022-12-18T00:03:58.846Z,99582.00
2022-12-18T00:04:08.844Z,99578.00
2022-12-18T00:04:18.796Z,99580.00
2022-12-18T00:04:28.701Z,99580.00
2022-12-18T00:04:38.647Z,99580.00
2022-12-18T00:04:48.670Z,99580.00
2022-12-18T00:04:58.674Z,99578.00
2022-12-18T00:05:08.678Z,99578.00
2022-12-18T00:05:18.662Z,99578.00
2022-12-18T00:05:28.671Z,99576.00
2022-12-18T00:05:38.704Z,99576.00
2022-12-18T00:05:48.667Z,99576.00
2022-12-18T00:05:58.645Z,99574.00
2022-12-18T00:06:08.651Z,99576.00
2022-12-18T00:06:18.659Z,99580.00
2022-12-18T00:06:28.638Z,99576.00
2022-12-18T00:06:38.644Z,99576.00
2022-12-18T00:06:48.648Z,99580.00
2022-12-18T00:06:58.636Z,99580.00
2022-12-18T00:07:08.656Z,99580.00
2022-12-18T00:07:18.649Z,99578.00
2022-12-18T00:07:28.649Z,99578.00
2022-12-18T00:07:38.647Z,99576.00
2022-12-18T00:07:48.651Z,99578.00
2022-12-18T00:07:58.639Z,99580.00
2022-12-18T00:08:09.334Z,99582.00
2022-12-18T00:08:18.633Z,99578.00
2022-12-18T00:08:28.683Z,99582.00
2022-12-18T00:08:38.659Z,99580.00
2022-12-18T00:08:48.641Z,99580.00
2022-12-18T00:08:58.638Z,99580.00
2022-12-18T00:09:08.625Z,99580.00
2022-12-18T00:09:18.622Z,99578.00
2022-12-18T00:09:31.161Z,99580.00
2022-12-18T00:09:39.759Z,99580.00
2022-12-18T00:09:48.627Z,99584.00
2022-12-18T00:09:58.635Z,99580.00
2022-12-18T00:10:08.634Z,99582.00
2022-12-18T00:10:18.621Z,99580.00
2022-12-18T00:10:28.630Z,99578.00
2022-12-18T00:10:38.609Z,99582.00
2022-12-18T00:10:48.638Z,99588.00
2022-12-18T00:10:59.828Z,99580.00
2022-12-18T00:11:08.629Z,99584.00
2022-12-18T00:11:18.624Z,99586.00
2022-12-18T00:11:28.617Z,99582.00
2022-12-18T00:11:38.668Z,99584.00
2022-12-18T00:11:48.619Z,99586.00
2022-12-18T00:11:58.697Z,99588.00
2022-12-18T00:12:30.001Z,99588.00
2022-12-18T00:12:38.636Z,99590.00
2022-12-18T00:12:48.626Z,99592.00
2022-12-18T00:12:58.605Z,99592.00
2022-12-18T00:13:10.183Z,99588.00
2022-12-18T00:13:18.630Z,99592.00
2022-12-18T00:13:28.631Z,99594.00
2022-12-18T00:13:38.886Z,99594.00
2022-12-18T00:13:48.610Z,99588.00
2022-12-18T00:13:58.609Z,99592.00
2022-12-18T00:14:08.678Z,99594.00
2022-12-18T00:14:18.597Z,99592.00
2022-12-18T00:14:28.589Z,99594.00
2022-12-18T00:14:38.599Z,99594.00
2022-12-18T00:14:48.647Z,99594.00
2022-12-18T00:14:58.605Z,99594.00
2022-12-18T00:15:08.680Z,99592.00
2022-12-18T00:15:18.603Z,99594.00
2022-12-18T00:15:28.600Z,99594.00
2022-12-18T00:15:38.613Z,99594.00
2022-12-18T00:15:48.649Z,99598.00
2022-12-18T00:15:58.676Z,99596.00
2022-12-18T00:16:08.618Z,99596.00
2022-12-18T00:16:18.648Z,99596.00
2022-12-18T00:16:28.717Z,99596.00
2022-12-18T00:16:38.702Z,99598.00
2022-12-18T00:16:48.577Z,99596.00
2022-12-18T00:16:58.573Z,99596.00
2022-12-18T00:17:08.599Z,99596.00
2022-12-18T00:17:18.569Z,99598.00
2022-12-18T00:17:28.570Z,99598.00
2022-12-18T00:17:38.609Z,99600.00
2022-12-18T00:17:48.570Z,99598.00
2022-12-18T00:17:58.579Z,99600.00
2022-12-18T00:18:08.569Z,99598.00
2022-12-18T00:18:20.756Z,99598.00
2022-12-18T00:18:28.584Z,99600.00
2022-12-18T00:18:38.915Z,99600.00
2022-12-18T00:18:48.584Z,99598.00
2022-12-18T00:18:58.588Z,99602.00
2022-12-18T00:19:08.583Z,99602.00
2022-12-18T00:19:18.560Z,99602.00
2022-12-18T00:19:28.559Z,99603.00
2022-12-18T00:19:38.559Z,99605.00
2022-12-18T00:19:48.559Z,99603.00
2022-12-18T00:19:58.570Z,99605.00
2022-12-18T00:20:08.679Z,99603.00
2022-12-18T00:20:18.559Z,99603.00
2022-12-18T00:20:28.553Z,99607.00
2022-12-18T00:20:38.557Z,99607.00
2022-12-18T00:20:48.558Z,99607.00
2022-12-18T00:20:58.553Z,99607.00
2022-12-18T00:21:08.550Z,99607.00
2022-12-18T00:21:18.590Z,99607.00
2022-12-18T00:21:28.570Z,99607.00
2022-12-18T00:21:38.568Z,99607.00
2022-12-18T00:21:48.560Z,99607.00
2022-12-18T00:21:58.551Z,99607.00
2022-12-18T00:22:08.560Z,99607.00
2022-12-18T00:22:18.600Z,99609.00
2022-12-18T00:22:28.549Z,99609.00
2022-12-18T00:22:38.590Z,99609.00
2022-12-18T00:22:48.552Z,99609.00
2022-12-18T00:22:58.643Z,99609.00
2022-12-18T00:23:08.539Z,99613.00
2022-12-18T00:23:18.541Z,99609.00
2022-12-18T00:23:28.540Z,99611.00
2022-12-18T00:23:38.997Z,99609.00
2022-12-18T00:23:48.591Z,99613.00
2022-12-18T00:23:58.548Z,99613.00
2022-12-18T00:24:08.527Z,99611.00
2022-12-18T00:24:18.576Z,99613.00
2022-12-18T00:24:28.548Z,99615.00
2022-12-18T00:24:38.547Z,99615.00
2022-12-18T00:24:48.523Z,99613.00
2022-12-18T00:24:58.531Z,99615.00
2022-12-18T00:25:08.614Z,99615.00
2022-12-18T00:25:18.540Z,99617.00
2022-12-18T00:25:28.528Z,99615.00
2022-12-18T00:25:38.571Z,99613.00
2022-12-18T00:25:48.521Z,99617.00
2022-12-18T00:25:58.550Z,99617.00
2022-12-18T00:26:08.522Z,99619.00
2022-12-18T00:26:18.530Z,99615.00
2022-12-18T00:26:28.532Z,99617.00
2022-12-18T00:26:38.520Z,99617.00
2022-12-18T00:26:48.530Z,99617.00
2022-12-18T00:26:58.534Z,99617.00
2022-12-18T00:27:08.516Z,99619.00
2022-12-18T00:27:18.510Z,99617.00
2022-12-18T00:27:28.518Z,99619.00
2022-12-18T00:27:38.661Z,99617.00
2022-12-18T00:27:48.510Z,99613.00
2022-12-18T00:27:58.556Z,99617.00
2022-12-18T00:28:08.586Z,99617.00
2022-12-18T00:28:18.536Z,99617.00
2022-12-18T00:28:28.518Z,99615.00
2022-12-18T00:28:38.530Z,99617.00
2022-12-18T00:28:48.512Z,99613.00
2022-12-18T00:28:58.500Z,99617.00
2022-12-18T00:29:08.506Z,99617.00
2022-12-18T00:29:18.510Z,99617.00
2022-12-18T00:29:28.504Z,99615.00
2022-12-18T00:29:38.519Z,99615.00
2022-12-18T00:29:48.541Z,99615.00
2022-12-18T00:29:58.506Z,99615.00
2022-12-18T00:30:08.522Z,99613.00
2022-12-18T00:30:18.535Z,99615.00
2022-12-18T00:30:28.490Z,99617.00
2022-12-18T00:30:38.583Z,99615.00
2022-12-18T00:30:48.496Z,99615.00
2022-12-18T00:30:58.492Z,99615.00
2022-12-18T00:31:08.546Z,99615.00
2022-12-18T00:31:18.579Z,99615.00
2022-12-18T00:31:28.532Z,99613.00
2022-12-18T00:31:38.557Z,99615.00
2022-12-18T00:31:48.533Z,99615.00
2022-12-18T00:31:58.585Z,99613.00
2022-12-18T00:32:08.485Z,99615.00
2022-12-18T00:32:18.488Z,99613.00
2022-12-18T00:32:28.491Z,99613.00
2022-12-18T00:32:38.590Z,99613.00
2022-12-18T00:32:48.492Z,99613.00
2022-12-18T00:32:58.480Z,99617.00
2022-12-18T00:33:08.491Z,99613.00
2022-12-18T00:33:18.481Z,99615.00
2022-12-18T00:33:28.501Z,99613.00
2022-12-18T00:33:38.930Z,99615.00
2022-12-18T00:33:48.480Z,99613.00
2022-12-18T00:33:58.475Z,99615.00
2022-12-18T00:34:08.713Z,99617.00
2022-12-18T00:34:18.471Z,99613.00
2022-12-18T00:34:28.521Z,99613.00
2022-12-18T00:34:38.471Z,99613.00
2022-12-18T00:34:48.461Z,99613.00
2022-12-18T00:34:58.501Z,99615.00
2022-12-18T00:35:08.492Z,99613.00
2022-12-18T00:35:18.479Z,99615.00
2022-12-18T00:35:28.484Z,99615.00
2022-12-18T00:35:38.461Z,99617.00
2022-12-18T00:35:48.463Z,99615.00
2022-12-18T00:35:58.462Z,99615.00
2022-12-18T00:36:08.461Z,99613.00
2022-12-18T00:36:18.462Z,99615.00
2022-12-18T00:36:28.463Z,99613.00
2022-12-18T00:36:38.473Z,99615.00
2022-12-18T00:36:48.473Z,99611.00
2022-12-18T00:36:58.460Z,99615.00
2022-12-18T00:37:08.443Z,99613.00
2022-12-18T00:37:20.455Z,99613.00
2022-12-18T00:37:28.455Z,99609.00
2022-12-18T00:37:38.524Z,99613.00
2022-12-18T00:37:48.475Z,99613.00
2022-12-18T00:37:58.462Z,99613.00
2022-12-18T00:38:08.462Z,99613.00
2022-12-18T00:38:18.460Z,99609.00
2022-12-18T00:38:28.455Z,99609.00
2022-12-18T00:38:38.452Z,99611.00
2022-12-18T00:38:48.452Z,99611.00
2022-12-18T00:38:58.452Z,99611.00
2022-12-18T00:39:08.445Z,99611.00
2022-12-18T00:39:18.461Z,99611.00
2022-12-18T00:39:28.443Z,99611.00
2022-12-18T00:39:38.442Z,99611.00
2022-12-18T00:39:48.458Z,99611.00
2022-12-18T00:39:58.452Z,99613.00
2022-12-18T00:40:08.532Z,99613.00
2022-12-18T00:40:18.460Z,99613.00
2022-12-18T00:40:28.451Z,99609.00
2022-12-18T00:40:38.432Z,99617.00
2022-12-18T00:40:48.442Z,99613.00
2022-12-18T00:40:58.458Z,99615.00
2022-12-18T00:41:08.432Z,99617.00
2022-12-18T00:41:18.432Z,99617.00
2022-12-18T00:41:28.436Z,99615.00
2022-12-18T00:41:38.452Z,99617.00
2022-12-18T00:41:48.490Z,99615.00
2022-12-18T00:41:58.447Z,99615.00
2022-12-18T00:42:08.459Z,99617.00
2022-12-18T00:42:18.432Z,99617.00
2022-12-18T00:42:28.424Z,99619.00
2022-12-18T00:42:38.445Z,99617.00
2022-12-18T00:42:48.431Z,99617.00
2022-12-18T00:42:58.427Z,99615.00
2022-12-18T00:43:08.426Z,99617.00
2022-12-18T00:43:18.411Z,99617.00
2022-12-18T00:43:28.413Z,99615.00
2022-12-18T00:43:38.787Z,99615.00
2022-12-18T00:43:48.411Z,99615.00
2022-12-18T00:43:58.453Z,99617.00
2022-12-18T00:44:08.401Z,99617.00
2022-12-18T00:44:18.413Z,99619.00
2022-12-18T00:44:28.407Z,99613.00
2022-12-18T00:44:38.420Z,99613.00
2022-12-18T00:44:48.415Z,99617.00
2022-12-18T00:44:58.447Z,99613.00
2022-12-18T00:45:12.580Z,99613.00
2022-12-18T00:45:18.425Z,99615.00
2022-12-18T00:45:28.447Z,99615.00
2022-12-18T00:45:38.451Z,99613.00
2022-12-18T00:45:48.428Z,99613.00
2022-12-18T00:45:58.461Z,99617.00
2022-12-18T00:46:08.464Z,99615.00
2022-12-18T00:46:18.422Z,99613.00
2022-12-18T00:46:28.394Z,99615.00
2022-12-18T00:46:38.416Z,99615.00
2022-12-18T00:46:48.404Z,99615.00
2022-12-18T00:46:58.392Z,99617.00
2022-12-18T00:47:08.400Z,99615.00
2022-12-18T00:47:18.402Z,99611.00
2022-12-18T00:47:28.393Z,99611.00
2022-12-18T00:47:38.403Z,99611.00
2022-12-18T00:47:48.391Z,99613.00
2022-12-18T00:47:58.412Z,99615.00
2022-12-18T00:48:08.383Z,99613.00
2022-12-18T00:48:18.383Z,99609.00
2022-12-18T00:48:28.383Z,99615.00
2022-12-18T00:48:38.414Z,99615.00
2022-12-18T00:48:48.385Z,99609.00
2022-12-18T00:48:58.432Z,99609.00
2022-12-18T00:49:08.382Z,99611.00
2022-12-18T00:49:18.393Z,99609.00
2022-12-18T00:49:28.376Z,99611.00
2022-12-18T00:49:38.396Z,99609.00
2022-12-18T00:49:48.382Z,99611.00
2022-12-18T00:49:58.382Z,99611.00
2022-12-18T00:50:08.373Z,99611.00
2022-12-18T00:50:18.388Z,99611.00
2022-12-18T00:50:28.364Z,99611.00
2022-12-18T00:50:38.378Z,99613.00
2022-12-18T00:50:48.414Z,99611.00
2022-12-18T00:50:58.375Z,99615.00
2022-12-18T00:51:08.377Z,99611.00
2022-12-18T00:51:18.375Z,99615.00
2022-12-18T00:51:28.372Z,99613.00
2022-12-18T00:51:38.377Z,99615.00
2022-12-18T00:51:48.363Z,99615.00
2022-12-18T00:51:58.373Z,99613.00
2022-12-18T00:52:08.365Z,99617.00
2022-12-18T00:52:18.396Z,99615.00
2022-12-18T00:52:28.403Z,99617.00
2022-12-18T00:52:38.374Z,99617.00
2022-12-18T00:52:48.373Z,99615.00
2022-12-18T00:52:58.382Z,99617.00
2022-12-18T00:53:08.384Z,99617.00
2022-12-18T00:53:18.362Z,99615.00
2022-12-18T00:53:28.371Z,99617.00
2022-12-18T00:53:38.855Z,99619.00
2022-12-18T00:53:48.375Z,99617.00
2022-12-18T00:53:58.365Z,99617.00
2022-12-18T00:54:08.380Z,99621.00
2022-12-18T00:54:18.354Z,99619.00
2022-12-18T00:54:28.365Z,99619.00
2022-12-18T00:54:38.354Z,99619.00
2022-12-18T00:54:48.358Z,99619.00
2022-12-18T00:55:01.839Z,99621.00
2022-12-18T00:55:08.356Z,99617.00
2022-12-18T00:55:18.348Z,99617.00
2022-12-18T00:55:28.375Z,99619.00
2022-12-18T00:55:38.358Z,99619.00
2022-12-18T00:55:48.343Z,99617.00
2022-12-18T00:55:58.345Z,99617.00
2022-12-18T00:56:08.355Z,99617.00
2022-12-18T00:56:18.364Z,99615.00
2022-12-18T00:56:28.358Z,99617.00
2022-12-18T00:56:48.053Z,99619.00
2022-12-18T00:56:49.604Z,99617.00
2022-12-18T00:56:58.342Z,99617.00
2022-12-18T00:57:08.344Z,99617.00
2022-12-18T00:57:18.345Z,99619.00
2022-12-18T00:57:28.356Z,99619.00
2022-12-18T00:57:38.343Z,99619.00
2022-12-18T00:57:48.335Z,99619.00
2022-12-18T00:57:58.343Z,99619.00
2022-12-18T00:58:08.325Z,99619.00
2022-12-18T00:58:18.334Z,99621.00
2022-12-18T00:58:28.336Z,99619.00
2022-12-18T00:58:38.385Z,99619.00
2022-12-18T00:58:48.338Z,99621.00
2022-12-18T00:58:58.389Z,99621.00
2022-12-18T00:59:08.334Z,99623.00
2022-12-18T00:59:18.327Z,99623.00
2022-12-18T00:59:28.341Z,99625.00
2022-12-18T00:59:38.340Z,99623.00
2022-12-18T00:59:48.342Z,99625.00
2022-12-18T00:59:58.325Z,99623.00
2022-12-18T01:00:08.365Z,99625.00
2022-12-18T01:00:18.327Z,99627.00
2022-12-18T01:00:28.333Z,99627.00
2022-12-18T01:00:38.336Z,99629.00
2022-12-18T01:00:48.356Z,99629.00
2022-12-18T01:00:58.345Z,99629.00
2022-12-18T01:01:08.350Z,99629.00
2022-12-18T01:01:18.426Z,99629.00
2022-12-18T01:01:28.476Z,99631.00
2022-12-18T01:01:38.531Z,99631.00
2022-12-18T01:01:48.536Z,99631.00
2022-12-18T01:01:58.455Z,99631.00
2022-12-18T01:02:08.575Z,99629.00
2022-12-18T01:02:18.409Z,99633.00
2022-12-18T01:02:28.421Z,99629.00
2022-12-18T01:02:38.506Z,99629.00
2022-12-18T01:02:48.537Z,99629.00
2022-12-18T01:02:58.376Z,99629.00
2022-12-18T01:03:08.370Z,99629.00
2022-12-18T01:03:18.400Z,99629.00
2022-12-18T01:03:28.337Z,99629.00
2022-12-18T01:03:38.721Z,99631.00
2022-12-18T01:03:48.346Z,99629.00
2022-12-18T01:03:58.375Z,99627.00
2022-12-18T01:04:08.316Z,99631.00
2022-12-18T01:04:18.327Z,99629.00
2022-12-18T01:04:28.308Z,99629.00
2022-12-18T01:04:38.315Z,99629.00
2022-12-18T01:04:48.300Z,99629.00
2022-12-18T01:04:58.320Z,99627.00
2022-12-18T01:05:08.296Z,99627.00
2022-12-18T01:05:18.315Z,99627.00
2022-12-18T01:05:28.326Z,99627.00
2022-12-18T01:05:38.295Z,99625.00
2022-12-18T01:05:48.296Z,99627.00
2022-12-18T01:05:58.295Z,99625.00
2022-12-18T01:06:08.299Z,99627.00
2022-12-18T01:06:18.295Z,99625.00
2022-12-18T01:06:28.298Z,99623.00
2022-12-18T01:06:38.287Z,99623.00
2022-12-18T01:06:48.292Z,99625.00
2022-12-18T01:06:58.305Z,99625.00
2022-12-18T01:07:08.311Z,99625.00
2022-12-18T01:07:18.283Z,99625.00
2022-12-18T01:07:28.286Z,99625.00
2022-12-18T01:07:38.277Z,99625.00
2022-12-18T01:07:48.288Z,99623.00
2022-12-18T01:07:58.270Z,99623.00
2022-12-18T01:08:08.278Z,99625.00
2022-12-18T01:08:18.275Z,99625.00
2022-12-18T01:08:28.288Z,99625.00
2022-12-18T01:08:38.284Z,99625.00
2022-12-18T01:08:48.276Z,99625.00
2022-12-18T01:08:58.304Z,99627.00
2022-12-18T01:09:08.276Z,99625.00
2022-12-18T01:09:18.271Z,99627.00
2022-12-18T01:09:28.273Z,99625.00
2022-12-18T01:09:38.276Z,99625.00
2022-12-18T01:09:48.294Z,99627.00
2022-12-18T01:09:58.279Z,99625.00
2022-12-18T01:10:08.269Z,99629.00
2022-12-18T01:10:18.286Z,99631.00
2022-12-18T01:10:28.287Z,99631.00
2022-12-18T01:10:38.267Z,99631.00
2022-12-18T01:10:48.277Z,99629.00
2022-12-18T01:10:58.266Z,99631.00
2022-12-18T01:11:08.265Z,99631.00
2022-12-18T01:11:18.280Z,99631.00
2022-12-18T01:11:28.277Z,99633.00
2022-12-18T01:11:38.258Z,99631.00
2022-12-18T01:11:48.257Z,99631.00
2022-12-18T01:11:58.260Z,99629.00
2022-12-18T01:12:08.268Z,99631.00
2022-12-18T01:12:18.267Z,99629.00
2022-12-18T01:12:28.266Z,99629.00
2022-12-18T01:12:38.261Z,99631.00
2022-12-18T01:12:48.247Z,99633.00
2022-12-18T01:12:58.249Z,99629.00
2022-12-18T01:13:08.266Z,99631.00
2022-12-18T01:13:18.247Z,99631.00
2022-12-18T01:13:28.245Z,99631.00
2022-12-18T01:13:38.609Z,99633.00
2022-12-18T01:13:48.267Z,99631.00
2022-12-18T01:13:58.255Z,99633.00
2022-12-18T01:14:08.256Z,99631.00
2022-12-18T01:14:18.247Z,99633.00
2022-12-18T01:14:28.247Z,99633.00
2022-12-18T01:14:38.241Z,99635.00
2022-12-18T01:14:48.259Z,99633.00
2022-12-18T01:14:58.237Z,99635.00
2022-12-18T01:15:08.238Z,99633.00
2022-12-18T01:15:18.236Z,99633.00
2022-12-18T01:15:28.226Z,99633.00
2022-12-18T01:15:38.227Z,99631.00
2022-12-18T01:15:48.237Z,99633.00
2022-12-18T01:15:58.249Z,99635.00
2022-12-18T01:16:08.314Z,99631.00
2022-12-18T01:16:18.247Z,99631.00
2022-12-18T01:16:28.303Z,99635.00
2022-12-18T01:16:38.276Z,99633.00
2022-12-18T01:16:48.295Z,99633.00
2022-12-18T01:16:58.226Z,99631.00
2022-12-18T01:17:08.243Z,99631.00
2022-12-18T01:17:18.216Z,99631.00
2022-12-18T01:17:28.259Z,99631.00
2022-12-18T01:17:38.223Z,99631.00
2022-12-18T01:17:48.245Z,99627.00
2022-12-18T01:17:58.242Z,99631.00
2022-12-18T01:18:08.215Z,99627.00
2022-12-18T01:18:18.240Z,99629.00
2022-12-18T01:18:28.221Z,99629.00
2022-12-18T01:18:38.234Z,99631.00
2022-12-18T01:18:48.235Z,99629.00
2022-12-18T01:18:58.214Z,99627.00
2022-12-18T01:19:08.239Z,99629.00
2022-12-18T01:19:18.216Z,99629.00
2022-12-18T01:19:28.254Z,99629.00
2022-12-18T01:19:38.219Z,99625.00
2022-12-18T01:19:48.231Z,99625.00
2022-12-18T01:19:58.217Z,99627.00
2022-12-18T01:20:08.233Z,99625.00
2022-12-18T01:20:18.207Z,99625.00
2022-12-18T01:20:28.206Z,99625.00
2022-12-18T01:20:38.217Z,99627.00
2022-12-18T01:20:48.204Z,99623.00
2022-12-18T01:20:58.237Z,99625.00
2022-12-18T01:21:08.207Z,99623.00
2022-12-18T01:21:18.196Z,99623.00
2022-12-18T01:21:28.199Z,99625.00
2022-12-18T01:21:38.200Z,99625.00
2022-12-18T01:21:48.208Z,99625.00
2022-12-18T01:21:58.214Z,99625.00
2022-12-18T01:22:08.204Z,99625.00
2022-12-18T01:22:18.197Z,99625.00
2022-12-18T01:22:28.206Z,99623.00
2022-12-18T01:22:38.200Z,99623.00
2022-12-18T01:22:48.198Z,99623.00
2022-12-18T01:22:58.187Z,99627.00
2022-12-18T01:23:08.188Z,99623.00
2022-12-18T01:23:18.206Z,99623.00
2022-12-18T01:23:28.203Z,99625.00
2022-12-18T01:23:38.624Z,99623.00
2022-12-18T01:23:48.178Z,99625.00
2022-12-18T01:23:58.182Z,99625.00
2022-12-18T01:24:08.188Z,99621.00
2022-12-18T01:24:18.187Z,99625.00
2022-12-18T01:24:28.178Z,99623.00
2022-12-18T01:24:38.210Z,99621.00
2022-12-18T01:24:48.239Z,99625.00
2022-12-18T01:24:58.187Z,99619.00
2022-12-18T01:25:08.191Z,99625.00
2022-12-18T01:25:18.188Z,99625.00
2022-12-18T01:25:28.168Z,99627.00
2022-12-18T01:25:38.194Z,99623.00
2022-12-18T01:25:48.187Z,99623.00
2022-12-18T01:25:58.177Z,99625.00
2022-12-18T01:26:08.213Z,99623.00
2022-12-18T01:26:18.192Z,99625.00
2022-12-18T01:26:28.178Z,99625.00
2022-12-18T01:26:38.169Z,99623.00
2022-12-18T01:26:48.172Z,99625.00
2022-12-18T01:26:58.171Z,99631.00
2022-12-18T01:27:08.188Z,99631.00
2022-12-18T01:27:18.159Z,99631.00
2022-12-18T01:27:28.168Z,99629.00
2022-12-18T01:27:38.168Z,99635.00
2022-12-18T01:27:48.168Z,99633.00
2022-12-18T01:27:58.177Z,99635.00
2022-12-18T01:28:08.159Z,99635.00
2022-12-18T01:28:18.157Z,99635.00
2022-12-18T01:28:28.169Z,99637.00
2022-12-18T01:28:38.208Z,99631.00
2022-12-18T01:28:48.158Z,99633.00
2022-12-18T01:28:58.175Z,99633.00
2022-12-18T01:29:08.169Z,99633.00
2022-12-18T01:29:18.158Z,99635.00
2022-12-18T01:29:28.157Z,99635.00
2022-12-18T01:29:38.159Z,99633.00
2022-12-18T01:29:48.149Z,99635.00
2022-12-18T01:29:58.185Z,99635.00
2022-12-18T01:30:08.180Z,99637.00
2022-12-18T01:30:18.179Z,99637.00
2022-12-18T01:30:28.160Z,99637.00
2022-12-18T01:30:38.148Z,99637.00
2022-12-18T01:30:48.152Z,99637.00
2022-12-18T01:30:58.146Z,99637.00
2022-12-18T01:31:08.158Z,99637.00
2022-12-18T01:31:18.207Z,99637.00
2022-12-18T01:31:28.206Z,99639.00
2022-12-18T01:31:38.188Z,99641.00
2022-12-18T01:31:48.180Z,99637.00
2022-12-18T01:31:58.216Z,99639.00
2022-12-18T01:32:08.207Z,99637.00
2022-12-18T01:32:18.176Z,99639.00
2022-12-18T01:32:28.138Z,99637.00
2022-12-18T01:32:38.143Z,99639.00
2022-12-18T01:32:48.141Z,99639.00
2022-12-18T01:32:58.145Z,99641.00
2022-12-18T01:33:08.157Z,99641.00
2022-12-18T01:33:18.139Z,99639.00
2022-12-18T01:33:28.148Z,99641.00
2022-12-18T01:33:38.561Z,99637.00
2022-12-18T01:33:48.129Z,99639.00
2022-12-18T01:33:58.130Z,99641.00
2022-12-18T01:34:08.149Z,99639.00
2022-12-18T01:34:18.119Z,99641.00
2022-12-18T01:34:28.118Z,99643.00
2022-12-18T01:34:38.140Z,99643.00
2022-12-18T01:34:48.125Z,99643.00
2022-12-18T01:34:58.118Z,99643.00
2022-12-18T01:35:08.126Z,99643.00
2022-12-18T01:35:18.109Z,99647.00
2022-12-18T01:35:28.167Z,99647.00
2022-12-18T01:35:38.129Z,99643.00
2022-12-18T01:35:48.118Z,99643.00
2022-12-18T01:35:58.120Z,99643.00
2022-12-18T01:36:08.134Z,99645.00
2022-12-18T01:36:18.113Z,99645.00
2022-12-18T01:36:28.131Z,99645.00
2022-12-18T01:36:38.229Z,99647.00
2022-12-18T01:36:48.149Z,99647.00
2022-12-18T01:36:58.139Z,99647.00
2022-12-18T01:37:08.120Z,99647.00
2022-12-18T01:37:18.100Z,99647.00
2022-12-18T01:37:28.187Z,99647.00
2022-12-18T01:37:38.101Z,99649.00
2022-12-18T01:37:48.109Z,99649.00
2022-12-18T01:37:58.160Z,99647.00
2022-12-18T01:38:08.123Z,99647.00
2022-12-18T01:38:18.112Z,99647.00
2022-12-18T01:38:28.129Z,99649.00
2022-12-18T01:38:38.121Z,99647.00
2022-12-18T01:38:48.123Z,99649.00
2022-12-18T01:38:58.158Z,99647.00
2022-12-18T01:39:08.142Z,99647.00
2022-12-18T01:39:18.099Z,99647.00
2022-12-18T01:39:28.137Z,99647.00
2022-12-18T01:39:38.101Z,99649.00
2022-12-18T01:39:48.110Z,99649.00
2022-12-18T01:39:58.120Z,99651.00
2022-12-18T01:40:08.154Z,99647.00
2022-12-18T01:40:18.092Z,99651.00
2022-12-18T01:40:28.121Z,99647.00
2022-12-18T01:40:38.090Z,99649.00
2022-12-18T01:40:48.099Z,99651.00
2022-12-18T01:40:58.109Z,99649.00
2022-12-18T01:41:08.090Z,99651.00
2022-12-18T01:41:18.122Z,99653.00
2022-12-18T01:41:28.102Z,99653.00
2022-12-18T01:41:38.123Z,99653.00
2022-12-18T01:41:48.081Z,99654.00
2022-12-18T01:41:58.111Z,99653.00
2022-12-18T01:42:08.091Z,99651.00
2022-12-18T01:42:18.091Z,99651.00
2022-12-18T01:42:28.134Z,99653.00
2022-12-18T01:42:38.081Z,99653.00
2022-12-18T01:42:48.082Z,99653.00
2022-12-18T01:42:58.094Z,99651.00
2022-12-18T01:43:08.077Z,99654.00
2022-12-18T01:43:18.077Z,99654.00
2022-12-18T01:43:28.113Z,99653.00
2022-12-18T01:43:38.458Z,99656.00
2022-12-18T01:43:48.063Z,99656.00
2022-12-18T01:43:58.084Z,99656.00
2022-12-18T01:44:08.081Z,99654.00
2022-12-18T01:44:18.072Z,99656.00
2022-12-18T01:44:28.072Z,99658.00
2022-12-18T01:44:38.090Z,99656.00
2022-12-18T01:44:48.093Z,99654.00
2022-12-18T01:44:58.082Z,99654.00
2022-12-18T01:45:08.058Z,99656.00
2022-12-18T01:45:18.071Z,99656.00
2022-12-18T01:45:28.127Z,99654.00
2022-12-18T01:45:38.123Z,99656.00
2022-12-18T01:45:48.111Z,99656.00
2022-12-18T01:45:58.144Z,99658.00
2022-12-18T01:46:08.113Z,99656.00
2022-12-18T01:46:18.150Z,99656.00
2022-12-18T01:46:28.070Z,99656.00
2022-12-18T01:46:38.061Z,99656.00
2022-12-18T01:46:48.051Z,99656.00
2022-12-18T01:46:58.062Z,99654.00
2022-12-18T01:47:08.060Z,99656.00
2022-12-18T01:47:18.091Z,99660.00
2022-12-18T01:47:28.056Z,99658.00
2022-12-18T01:47:38.055Z,99656.00
2022-12-18T01:47:48.040Z,99656.00
2022-12-18T01:47:58.064Z,99654.00
2022-12-18T01:48:08.042Z,99653.00
2022-12-18T01:48:18.074Z,99653.00
2022-12-18T01:48:28.062Z,99651.00
2022-12-18T01:48:38.054Z,99651.00
2022-12-18T01:48:48.071Z,99651.00
2022-12-18T01:48:58.041Z,99651.00
2022-12-18T01:49:08.050Z,99651.00
2022-12-18T01:49:18.091Z,99653.00
2022-12-18T01:49:28.041Z,99653.00
2022-12-18T01:49:38.043Z,99651.00
2022-12-18T01:49:48.034Z,99651.00
2022-12-18T01:49:58.048Z,99651.00
2022-12-18T01:50:08.080Z,99647.00
2022-12-18T01:50:18.043Z,99651.00
2022-12-18T01:50:28.041Z,99649.00
2022-12-18T01:50:38.042Z,99647.00
2022-12-18T01:50:48.037Z,99651.00
2022-12-18T01:50:58.052Z,99649.00
2022-12-18T01:51:08.035Z,99649.00
2022-12-18T01:51:18.041Z,99649.00
2022-12-18T01:51:28.024Z,99651.00
2022-12-18T01:51:38.773Z,99651.00
2022-12-18T01:51:48.122Z,99647.00
2022-12-18T01:51:58.032Z,99649.00
2022-12-18T01:52:08.013Z,99651.00
2022-12-18T01:52:18.057Z,99649.00
2022-12-18T01:52:28.031Z,99649.00
2022-12-18T01:52:38.041Z,99649.00
2022-12-18T01:52:48.033Z,99647.00
2022-12-18T01:52:58.021Z,99649.00
2022-12-18T01:53:08.053Z,99647.00
2022-12-18T01:53:18.022Z,99649.00
2022-12-18T01:53:28.021Z,99647.00
2022-12-18T01:53:38.511Z,99645.00
2022-12-18T01:53:48.022Z,99645.00
2022-12-18T01:53:58.024Z,99645.00
2022-12-18T01:54:08.010Z,99643.00
2022-12-18T01:54:18.062Z,99645.00
2022-12-18T01:54:28.052Z,99641.00
2022-12-18T01:54:38.033Z,99645.00
2022-12-18T01:54:48.044Z,99643.00
2022-12-18T01:54:58.023Z,99643.00
2022-12-18T01:55:08.034Z,99643.00
2022-12-18T01:55:18.012Z,99643.00
2022-12-18T01:55:28.010Z,99643.00
2022-12-18T01:55:38.003Z,99643.00
2022-12-18T01:55:48.007Z,99641.00
2022-12-18T01:55:58.002Z,99641.00
2022-12-18T01:56:08.046Z,99641.00
2022-12-18T01:56:18.033Z,99641.00
2022-12-18T01:56:27.993Z,99641.00
2022-12-18T01:56:38.021Z,99639.00
2022-12-18T01:56:48.003Z,99641.00
2022-12-18T01:56:58.004Z,99641.00
2022-12-18T01:57:08.024Z,99641.00
2022-12-18T01:57:18.015Z,99639.00
2022-12-18T01:57:28.000Z,99641.00
2022-12-18T01:57:38.015Z,99641.00
2022-12-18T01:57:48.002Z,99643.00